Archival Weather

Chicago O'Hare International

Chicago, Illinois (KORD)

Report from: Tuesday, December 6, 2022 7:10 PM CST
Current time: Saturday, February 4, 2023 9:26 PM CST

Current weather
Weather history
Weather forecast

Temperature5.6°C (42.1°F)
Wind chill4.6°C (40.2°F)
Dew point2.2°C (36.0°F)
Winds 3 kts (1.5 m/s, 3.5 mph) Southeast (130°)
Visibility7 mi. (11.3 km)
Clouds Few clouds 1,500 ft. (457 m)
Scattered clouds 2,100 ft. (640 m)
Ceiling: Broken clouds 7,500 ft. (2,286 m)
Broken clouds 13,000 ft. (3,962 m)
Broken clouds 16,000 ft. (4,877 m)
Altimeter30.03 in.Hg (1017 mB)
Relative humidity79 %
Density altitude-1,153 ft. (-351 m)
Remarks Automated weather observing station with precipitation discriminator
Flight conditions Visual Meteorological Conditions
Raw dataKORD 070110Z 13003KT 7SM FEW015 SCT021 BKN075 BKN130 BKN160 06/02 A3003 RMK AO2 T00560022
An unhandled exception has occurred. See browser dev tools for details. Reload 🗙